Time;durP1;ratioP1;P1;durP2;ratioP2;P2;SDS_P1;SDS_P2;PMS_P1;PMS_P2;Temp;Humidity;BMP_temperature;BMP_pressure;BME280_temperature;BME280_humidity;BME280_pressure;Samples;Min_cycle;Max_cycle;Signal;HPM_P1;HPM_P2
2023/04/01 00:00:22;;;;;;;6.22;4.07;;;10.60;99.90;;;;;;5056202;28;20033;-78
2023/04/01 00:02:48;;;;;;;8.05;4.28;;;10.60;99.90;;;;;;5074670;28;20037;-77
2023/04/01 00:05:14;;;;;;;6.65;4.18;;;10.50;99.90;;;;;;5054027;28;20116;-78
2023/04/01 00:07:40;;;;;;;6.43;3.88;;;10.50;99.90;;;;;;5051175;28;20029;-77
2023/04/01 00:10:08;;;;;;;7.63;4.47;;;10.60;99.90;;;;;;5056005;28;20509;-77
2023/04/01 00:12:34;;;;;;;7.93;4.10;;;10.50;99.90;;;;;;5074421;28;20052;-78
2023/04/01 00:15:00;;;;;;;7.30;4.10;;;10.50;99.90;;;;;;5053610;28;20120;-78
2023/04/01 00:17:26;;;;;;;7.00;4.07;;;10.50;99.90;;;;;;5054502;28;20082;-78
2023/04/01 00:19:55;;;;;;;6.70;4.20;;;10.50;99.90;;;;;;5037846;28;20447;-78
2023/04/01 00:22:21;;;;;;;7.38;4.57;;;10.50;99.90;;;;;;5056040;28;20431;-78
2023/04/01 00:24:47;;;;;;;7.78;4.55;;;10.50;99.90;;;;;;5054748;28;20286;-78
2023/04/01 00:27:12;;;;;;;8.20;4.43;;;10.50;99.90;;;;;;5056611;28;20128;-78
2023/04/01 00:29:38;;;;;;;6.53;3.83;;;10.50;99.90;;;;;;5038811;28;20048;-78
2023/04/01 00:32:04;;;;;;;7.50;4.35;;;10.50;99.90;;;;;;5037505;28;20123;-79
2023/04/01 00:34:29;;;;;;;8.00;4.63;;;10.50;99.90;;;;;;5053745;28;20037;-78
2023/04/01 00:36:55;;;;;;;8.05;4.88;;;10.50;99.90;;;;;;5065271;28;20442;-78
2023/04/01 00:39:21;;;;;;;7.68;5.25;;;10.40;99.90;;;;;;5057605;28;20065;-78
2023/04/01 00:41:47;;;;;;;7.85;5.00;;;10.50;99.90;;;;;;5060218;28;20041;-78
2023/04/01 00:44:23;;;;;;;8.32;5.40;;;10.40;99.90;;;;;;5068814;28;20095;-78
2023/04/01 00:46:49;;;;;;;9.40;4.90;;;10.50;99.90;;;;;;5070596;28;20402;-77
2023/04/01 00:49:17;;;;;;;7.35;5.10;;;10.40;99.90;;;;;;5037283;28;20041;-77
2023/04/01 00:51:44;;;;;;;9.13;5.45;;;10.40;99.90;;;;;;5066115;28;20067;-78
2023/04/01 00:54:12;;;;;;;8.63;5.38;;;10.40;99.90;;;;;;5073625;28;20036;-78
2023/04/01 00:56:44;;;;;;;8.38;5.32;;;10.40;99.90;;;;;;5072664;28;20076;-79
2023/04/01 00:59:17;;;;;;;9.07;5.30;;;10.30;99.90;;;;;;5057360;28;20389;-79
2023/04/01 01:01:42;;;;;;;;;;;10.30;99.90;;;;;;5073154;28;20047;-79
2023/04/01 01:04:25;;;;;;;8.27;5.10;;;10.30;99.90;;;;;;5087378;28;21032;-78
2023/04/01 01:07:13;;;;;;;8.93;5.53;;;10.30;99.90;;;;;;5068503;28;20041;-77
2023/04/01 01:09:54;;;;;;;8.55;4.43;;;10.30;99.90;;;;;;5070388;28;20403;-77
2023/04/01 01:12:30;;;;;;;6.80;4.68;;;10.40;99.90;;;;;;5052027;28;20084;-77
2023/04/01 01:15:05;;;;;;;8.45;5.20;;;10.30;99.90;;;;;;5036991;28;20531;-78
2023/04/01 01:17:46;;;;;;;8.15;4.82;;;10.30;99.90;;;;;;5053578;28;20040;-78
2023/04/01 01:20:32;;;;;;;9.40;4.53;;;10.30;99.90;;;;;;5040006;28;20040;-77
2023/04/01 01:23:16;;;;;;;9.07;5.10;;;10.20;99.90;;;;;;5073138;28;20036;-77
2023/04/01 01:26:06;;;;;;;9.48;4.82;;;10.20;99.90;;;;;;5059679;28;20064;-77
2023/04/01 01:29:01;;;;;;;8.80;4.85;;;10.20;99.90;;;;;;5069845;28;20032;-78
2023/04/01 01:31:51;;;;;;;8.65;5.07;;;10.20;99.90;;;;;;5064038;28;20080;-78
2023/04/01 01:34:20;;;;;;;8.48;5.25;;;10.20;99.90;;;;;;5071127;28;20036;-77
2023/04/01 01:36:50;;;;;;;11.63;5.05;;;10.20;99.90;;;;;;5045186;28;20388;-77
2023/04/01 01:39:17;;;;;;;8.10;4.65;;;10.20;99.90;;;;;;5056288;28;20040;-77
2023/04/01 01:41:46;;;;;;;9.23;4.55;;;10.20;99.90;;;;;;5071612;28;20107;-78
2023/04/01 01:44:15;;;;;;;8.30;5.32;;;10.20;99.90;;;;;;5071875;28;20431;-78
2023/04/01 01:46:42;;;;;;;8.68;5.03;;;10.30;99.90;;;;;;5052797;28;20148;-77
2023/04/01 01:49:11;;;;;;;8.32;5.18;;;10.30;99.90;;;;;;5053015;28;20404;-77
2023/04/01 01:51:37;;;;;;;9.90;5.47;;;10.30;99.90;;;;;;5047507;28;20523;-77
2023/04/01 01:54:02;;;;;;;9.80;5.93;;;10.30;99.90;;;;;;5055839;28;20040;-77
2023/04/01 01:56:29;;;;;;;9.27;5.30;;;10.20;99.90;;;;;;5036477;28;20090;-77
2023/04/01 01:59:09;;;;;;;8.73;5.25;;;10.20;99.90;;;;;;5052711;28;20120;-77
2023/04/01 02:01:40;;;;;;;8.15;4.93;;;10.20;99.90;;;;;;5052215;28;20083;-77
2023/04/01 02:04:07;;;;;;;8.13;4.95;;;10.20;99.90;;;;;;5035797;28;20127;-77
2023/04/01 02:06:38;;;;;;;8.43;5.28;;;10.10;99.90;;;;;;5049994;28;20051;-77
2023/04/01 02:09:10;;;;;;;9.35;5.18;;;10.20;99.90;;;;;;5063539;28;20044;-78
2023/04/01 02:12:06;;;;;;;8.88;4.93;;;10.20;99.90;;;;;;5054443;28;20049;-77
2023/04/01 02:14:43;;;;;;;8.00;5.00;;;10.20;99.90;;;;;;5053405;28;20124;-77
2023/04/01 02:17:20;;;;;;;7.47;4.70;;;10.20;99.90;;;;;;5072061;28;20036;-77
2023/04/01 02:19:53;;;;;;;9.68;4.47;;;10.30;99.90;;;;;;5055659;28;20086;-77
2023/04/01 02:22:26;;;;;;;8.68;4.30;;;10.40;99.90;;;;;;5051360;28;20520;-77
2023/04/01 02:24:57;;;;;;;8.93;4.53;;;10.30;99.90;;;;;;5069189;28;20033;-78
2023/04/01 02:27:23;;;;;;;8.02;4.22;;;10.30;99.90;;;;;;5059854;28;20072;-77
2023/04/01 02:29:50;;;;;;;7.32;4.38;;;10.30;99.90;;;;;;5051394;28;20035;-76
2023/04/01 02:32:17;;;;;;;6.90;4.07;;;10.30;99.90;;;;;;5046742;28;20574;-76
2023/04/01 02:34:43;;;;;;;7.10;4.22;;;10.30;99.90;;;;;;5062897;28;20089;-76
2023/04/01 02:37:10;;;;;;;8.25;4.70;;;10.30;99.90;;;;;;5065435;28;20480;-76
2023/04/01 02:39:35;;;;;;;7.35;4.07;;;10.20;99.90;;;;;;5066185;28;20111;-76
2023/04/01 02:42:01;;;;;;;10.05;3.72;;;10.20;99.90;;;;;;5058893;28;20123;-76
2023/04/01 02:44:27;;;;;;;9.98;4.03;;;10.10;99.90;;;;;;5071971;28;20044;-76
2023/04/01 02:46:52;;;;;;;6.70;3.67;;;10.10;99.90;;;;;;5069486;28;20040;-77
2023/04/01 02:49:18;;;;;;;5.35;2.53;;;10.10;99.90;;;;;;5055544;28;20033;-77
2023/04/01 02:51:44;;;;;;;3.97;2.03;;;10.20;99.90;;;;;;5050674;28;20088;-77
2023/04/01 02:54:09;;;;;;;4.10;1.90;;;10.20;99.90;;;;;;5036307;28;20091;-76
2023/04/01 02:56:35;;;;;;;3.63;2.17;;;10.10;99.90;;;;;;5065138;28;20037;-78
2023/04/01 02:59:01;;;;;;;4.45;2.13;;;10.10;99.90;;;;;;5068954;28;20039;-77
2023/04/01 03:01:26;;;;;;;5.07;2.72;;;10.10;99.90;;;;;;5070315;28;20447;-78
2023/04/01 03:03:52;;;;;;;5.10;2.70;;;10.10;99.90;;;;;;5048176;28;20063;-78
2023/04/01 03:06:18;;;;;;;3.80;2.05;;;10.10;99.90;;;;;;5048459;28;20051;-78
2023/04/01 03:08:43;;;;;;;2.95;1.63;;;10.00;99.90;;;;;;5071997;28;20459;-78
2023/04/01 03:11:10;;;;;;;4.10;1.90;;;10.00;99.90;;;;;;5052047;28;20477;-78
2023/04/01 03:13:35;;;;;;;3.83;2.05;;;10.00;99.90;;;;;;5067822;28;20062;-77
2023/04/01 03:16:01;;;;;;;4.65;2.38;;;10.00;99.90;;;;;;5055143;28;20033;-78
2023/04/01 03:18:27;;;;;;;5.97;3.05;;;10.00;99.90;;;;;;5047161;28;20036;-78
2023/04/01 03:20:52;;;;;;;6.63;3.10;;;9.90;99.90;;;;;;5056843;28;20036;-79
2023/04/01 03:23:20;;;;;;;9.15;4.40;;;9.90;99.90;;;;;;5072905;28;20127;-79
2023/04/01 03:25:46;;;;;;;9.70;5.97;;;10.00;99.90;;;;;;5051849;28;20048;-79
2023/04/01 03:28:13;;;;;;;9.35;6.13;;;10.00;99.90;;;;;;5049003;28;20094;-79
2023/04/01 03:30:39;;;;;;;10.32;7.38;;;10.00;99.90;;;;;;5038391;28;20087;-79
2023/04/01 03:33:04;;;;;;;13.32;7.80;;;10.00;99.90;;;;;;5052014;28;20090;-79
2023/04/01 03:35:30;;;;;;;10.07;7.20;;;10.00;99.90;;;;;;5055061;28;20040;-79
2023/04/01 03:37:56;;;;;;;10.05;7.45;;;10.00;99.90;;;;;;5071234;28;20064;-79
2023/04/01 03:40:22;;;;;;;11.85;7.53;;;10.00;99.90;;;;;;5065506;28;20040;-79
2023/04/01 03:42:47;;;;;;;10.38;7.68;;;10.00;99.90;;;;;;5072200;28;20546;-78
2023/04/01 03:45:13;;;;;;;10.23;6.93;;;10.00;99.90;;;;;;5075182;28;20036;-78
2023/04/01 03:47:40;;;;;;;11.30;7.15;;;10.00;99.90;;;;;;5071475;28;20044;-79
2023/04/01 03:50:06;;;;;;;10.85;6.25;;;10.00;99.90;;;;;;5053849;28;20044;-78
2023/04/01 03:52:33;;;;;;;9.95;6.07;;;10.00;99.90;;;;;;5046083;28;20037;-78
2023/04/01 03:54:58;;;;;;;9.40;5.88;;;10.00;99.90;;;;;;5056541;28;20124;-77
2023/04/01 03:57:24;;;;;;;8.98;6.28;;;10.00;99.90;;;;;;5056192;28;20444;-77
2023/04/01 03:59:50;;;;;;;9.18;5.97;;;10.00;99.90;;;;;;5058227;28;20480;-78
2023/04/01 04:02:15;;;;;;;10.57;6.00;;;10.00;99.90;;;;;;5057546;28;20119;-77
2023/04/01 04:04:42;;;;;;;11.38;6.03;;;10.00;99.90;;;;;;5068827;28;20040;-77
2023/04/01 04:07:08;;;;;;;8.85;5.18;;;10.00;99.90;;;;;;5075654;28;20041;-77
2023/04/01 04:09:33;;;;;;;10.93;6.25;;;10.00;99.90;;;;;;5061143;28;20059;-77
2023/04/01 04:12:00;;;;;;;9.57;6.20;;;10.00;99.90;;;;;;5048322;28;20037;-77
2023/04/01 04:14:26;;;;;;;9.77;6.07;;;9.90;99.90;;;;;;5054409;28;20124;-77
2023/04/01 04:16:51;;;;;;;9.77;6.25;;;10.00;99.90;;;;;;5065498;28;20115;-78
2023/04/01 04:19:17;;;;;;;9.68;6.20;;;9.90;99.90;;;;;;5051090;28;20040;-77
2023/04/01 04:21:43;;;;;;;8.80;5.65;;;10.00;99.90;;;;;;5053103;28;20043;-78
2023/04/01 04:24:09;;;;;;;9.55;5.80;;;10.00;99.90;;;;;;5065326;28;20400;-79
2023/04/01 04:26:34;;;;;;;9.75;6.15;;;9.90;99.90;;;;;;5072130;28;20036;-79
2023/04/01 04:29:02;;;;;;;10.00;6.57;;;9.90;99.90;;;;;;5046202;28;20144;-78
2023/04/01 04:31:28;;;;;;;8.80;5.95;;;10.00;99.90;;;;;;5045306;28;20032;-79
2023/04/01 04:33:54;;;;;;;9.70;5.80;;;9.90;99.90;;;;;;5039571;28;20112;-79
2023/04/01 04:36:21;;;;;;;10.43;6.32;;;9.90;99.90;;;;;;5044637;28;20065;-79
2023/04/01 04:38:47;;;;;;;8.95;6.00;;;10.00;99.90;;;;;;5057487;28;20044;-79
2023/04/01 04:41:14;;;;;;;9.77;5.72;;;10.00;99.90;;;;;;5065439;28;20432;-79
2023/04/01 04:43:41;;;;;;;8.52;5.88;;;10.00;99.90;;;;;;5104262;28;20042;-79
2023/04/01 04:46:10;;;;;;;10.35;6.68;;;10.00;99.90;;;;;;5072582;28;20061;-79
2023/04/01 04:48:36;;;;;;;10.38;7.00;;;10.00;99.90;;;;;;5049085;28;20507;-79
2023/04/01 04:51:02;;;;;;;10.68;6.93;;;10.00;99.90;;;;;;5048265;28;20059;-78
2023/04/01 04:53:28;;;;;;;8.88;5.85;;;10.00;99.90;;;;;;5077110;28;20392;-79
2023/04/01 04:55:54;;;;;;;10.73;7.47;;;10.00;99.90;;;;;;5068983;28;20059;-80
2023/04/01 04:58:20;;;;;;;11.80;6.97;;;10.00;99.90;;;;;;5073710;28;20037;-80
2023/04/01 05:00:46;;;;;;;11.63;8.05;;;10.00;99.90;;;;;;5056473;28;20400;-80
2023/04/01 05:03:12;;;;;;;11.55;7.43;;;10.00;99.90;;;;;;5073545;28;20068;-80
2023/04/01 05:05:38;;;;;;;11.18;8.00;;;10.00;99.90;;;;;;5068140;28;20040;-80
2023/04/01 05:08:04;;;;;;;10.77;7.70;;;10.00;99.90;;;;;;5065635;28;20420;-80
2023/04/01 05:10:31;;;;;;;13.48;8.82;;;10.00;99.90;;;;;;5069302;28;20047;-79
2023/04/01 05:12:57;;;;;;;12.32;8.48;;;10.00;99.90;;;;;;5047178;28;20037;-79
2023/04/01 05:15:23;;;;;;;11.25;8.27;;;10.00;99.90;;;;;;5040351;28;20037;-79
2023/04/01 05:17:48;;;;;;;11.85;8.77;;;10.00;99.90;;;;;;5050888;28;20108;-79
2023/04/01 05:20:14;;;;;;;11.15;7.43;;;10.00;99.90;;;;;;5048889;28;20064;-79
2023/04/01 05:22:40;;;;;;;9.70;6.70;;;10.00;99.90;;;;;;5055681;28;20044;-79
2023/04/01 05:25:06;;;;;;;9.63;6.25;;;10.00;99.90;;;;;;5054503;28;20041;-80
2023/04/01 05:27:32;;;;;;;9.63;5.90;;;10.10;99.90;;;;;;5071232;28;20088;-80
2023/04/01 05:29:58;;;;;;;8.65;5.82;;;10.00;99.90;;;;;;5066176;28;20033;-80
2023/04/01 05:32:23;;;;;;;9.07;6.35;;;10.00;99.90;;;;;;5062517;28;20037;-80
2023/04/01 05:34:53;;;;;;;8.07;4.90;;;10.00;99.90;;;;;;5054762;28;20032;-80
2023/04/01 05:37:19;;;;;;;8.65;5.65;;;10.00;99.90;;;;;;5069864;28;20037;-79
2023/04/01 05:39:45;;;;;;;9.25;6.10;;;10.00;99.90;;;;;;5070919;28;20047;-79
2023/04/01 05:42:11;;;;;;;8.80;5.75;;;10.00;99.90;;;;;;5067028;28;20040;-80
2023/04/01 05:44:36;;;;;;;11.00;5.63;;;9.90;99.90;;;;;;5069927;28;20048;-79
2023/04/01 05:47:04;;;;;;;8.98;4.88;;;9.90;99.90;;;;;;5056832;28;20045;-78
2023/04/01 05:49:30;;;;;;;10.25;6.35;;;10.00;99.90;;;;;;5068066;28;20037;-77
2023/04/01 05:51:56;;;;;;;9.80;5.85;;;9.90;99.90;;;;;;5053792;28;20489;-77
2023/04/01 05:54:22;;;;;;;8.60;5.93;;;10.00;99.90;;;;;;5064857;28;20049;-78
2023/04/01 05:56:48;;;;;;;9.27;5.70;;;9.90;99.90;;;;;;5059324;28;20032;-77
2023/04/01 05:59:14;;;;;;;11.15;6.60;;;9.90;99.90;;;;;;5063761;28;20028;-77
2023/04/01 06:01:40;;;;;;;8.75;5.80;;;10.00;99.90;;;;;;5042558;28;20068;-77
2023/04/01 06:04:06;;;;;;;8.60;5.60;;;10.00;99.90;;;;;;5059878;28;20101;-77
2023/04/01 06:06:32;;;;;;;9.20;5.78;;;9.90;99.90;;;;;;5069810;28;20123;-77
2023/04/01 06:09:10;;;;;;;8.55;5.63;;;10.00;99.90;;;;;;5060153;28;20047;-78
2023/04/01 06:12:08;;;;;;;9.02;6.15;;;9.90;99.90;;;;;;5041535;28;20123;-78
2023/04/01 06:14:47;;;;;;;10.90;7.53;;;10.00;99.90;;;;;;5086979;28;20037;-77
2023/04/01 06:17:46;;;;;;;12.50;8.35;;;10.00;99.90;;;;;;5049384;28;20040;-77
2023/04/01 06:20:37;;;;;;;14.18;9.60;;;9.90;99.90;;;;;;5060579;28;20041;-77
2023/04/01 06:23:14;;;;;;;13.15;9.88;;;9.90;99.90;;;;;;5066344;28;20037;-77
2023/04/01 06:25:43;;;;;;;13.30;9.40;;;10.00;99.90;;;;;;5047980;28;20546;-77
2023/04/01 06:28:37;;;;;;;15.73;11.27;;;10.00;99.90;;;;;;5068872;28;20043;-77
2023/04/01 06:31:22;;;;;;;15.95;11.77;;;10.00;99.90;;;;;;5051740;28;20493;-77
2023/04/01 06:34:00;;;;;;;16.45;11.27;;;10.00;99.90;;;;;;5046611;28;20036;-77
2023/04/01 06:36:53;;;;;;;15.70;12.38;;;10.00;99.90;;;;;;5050456;28;20033;-77
2023/04/01 06:39:30;;;;;;;16.40;11.60;;;10.00;99.90;;;;;;5050067;28;20045;-78
2023/04/01 06:42:17;;;;;;;16.50;11.63;;;10.00;99.90;;;;;;5051359;28;20049;-78
2023/04/01 06:45:14;;;;;;;15.70;11.27;;;10.10;99.90;;;;;;5070837;28;20044;-79
2023/04/01 06:47:48;;;;;;;15.07;11.18;;;10.10;99.90;;;;;;5053254;28;20051;-78
2023/04/01 06:50:30;;;;;;;16.52;11.70;;;10.10;99.90;;;;;;5052382;28;20041;-79
2023/04/01 06:53:02;;;;;;;;;;;10.10;99.90;;;;;;5037135;28;20083;-79
2023/04/01 06:55:37;;;;;;;15.18;10.93;;;10.10;99.90;;;;;;5057262;28;19963;-80
2023/04/01 06:58:07;;;;;;;16.73;11.38;;;10.10;99.90;;;;;;5068686;28;20033;-80
2023/04/01 07:00:37;;;;;;;16.98;11.45;;;10.10;99.90;;;;;;5055039;28;20095;-80
2023/04/01 07:03:18;;;;;;;15.05;11.68;;;10.10;99.90;;;;;;5055840;28;20037;-79
2023/04/01 07:05:44;;;;;;;16.02;11.63;;;10.20;99.90;;;;;;5050437;28;20032;-79
2023/04/01 07:08:15;;;;;;;14.75;10.55;;;10.20;99.90;;;;;;5048205;28;20400;-78
2023/04/01 07:11:08;;;;;;;17.48;11.77;;;10.20;99.90;;;;;;5035901;28;20049;-78
2023/04/01 07:13:42;;;;;;;14.98;11.02;;;10.20;99.90;;;;;;5064919;28;20033;-78
2023/04/01 07:16:12;;;;;;;15.85;11.75;;;10.20;99.90;;;;;;5069989;28;20039;-78
2023/04/01 07:18:52;;;;;;;15.57;11.15;;;10.20;99.90;;;;;;5053279;28;20497;-78
2023/04/01 07:21:30;;;;;;;15.52;11.65;;;10.30;99.90;;;;;;5052874;28;20076;-78
2023/04/01 07:24:01;;;;;;;17.48;12.63;;;10.30;99.90;;;;;;5070747;28;20055;-78
2023/04/01 07:26:27;;;;;;;18.98;13.00;;;10.30;99.90;;;;;;5050445;28;20045;-78
2023/04/01 07:28:53;;;;;;;16.33;11.18;;;10.20;99.90;;;;;;5055466;28;20039;-78
2023/04/01 07:31:28;;;;;;;18.10;13.45;;;10.30;99.90;;;;;;5060709;28;20047;-78
2023/04/01 07:34:10;;;;;;;19.23;12.48;;;10.30;99.90;;;;;;5055998;28;20512;-78
2023/04/01 07:36:44;;;;;;;15.77;11.85;;;10.30;99.90;;;;;;5083901;28;20408;-78
2023/04/01 07:39:21;;;;;;;16.13;10.75;;;10.30;99.90;;;;;;5044436;28;20490;-78
2023/04/01 07:42:29;;;;;;;15.90;11.15;;;10.40;99.90;;;;;;5062778;28;20045;-78
2023/04/01 07:45:09;;;;;;;15.77;11.77;;;10.50;99.90;;;;;;5055822;28;20037;-78
2023/04/01 07:48:01;;;;;;;17.15;11.93;;;10.50;99.90;;;;;;5047889;28;20106;-78
2023/04/01 07:50:29;;;;;;;15.30;11.38;;;10.50;99.90;;;;;;5061918;28;20060;-79
2023/04/01 07:53:03;;;;;;;17.17;11.48;;;10.50;99.90;;;;;;5044194;28;20094;-78
2023/04/01 07:55:34;;;;;;;17.02;12.02;;;10.60;99.90;;;;;;5072578;28;20086;-79
2023/04/01 07:58:23;;;;;;;18.33;12.63;;;10.50;99.90;;;;;;5067168;28;20037;-70
2023/04/01 08:01:37;;;;;;;14.85;9.98;;;10.60;99.90;;;;;;5048201;28;20036;-72
2023/04/01 08:04:36;;;;;;;17.15;11.77;;;10.70;99.90;;;;;;5035321;28;20048;-78
2023/04/01 08:07:17;;;;;;;17.55;11.65;;;10.80;99.90;;;;;;5054230;28;20098;-78
2023/04/01 08:10:01;;;;;;;17.35;12.07;;;10.90;99.90;;;;;;5066975;28;20033;-78
2023/04/01 08:12:45;;;;;;;16.35;11.45;;;10.90;99.90;;;;;;5053024;28;20080;-77
2023/04/01 08:15:21;;;;;;;16.92;12.57;;;10.90;99.90;;;;;;5057015;28;20125;-77
2023/04/01 08:18:13;;;;;;;16.08;11.90;;;11.00;99.90;;;;;;5056041;28;20033;-77
2023/04/01 08:20:53;;;;;;;16.38;11.95;;;11.00;99.90;;;;;;5044059;28;20044;-77
2023/04/01 08:23:44;;;;;;;14.23;9.68;;;11.00;99.90;;;;;;5062085;28;20083;-78
2023/04/01 08:26:36;;;;;;;15.85;10.90;;;11.10;99.90;;;;;;5070542;28;20550;-78
2023/04/01 08:29:13;;;;;;;14.48;10.60;;;11.10;99.90;;;;;;5055978;28;20107;-77
2023/04/01 08:31:50;;;;;;;16.35;10.88;;;11.10;99.90;;;;;;5066958;28;20086;-76
2023/04/01 08:34:33;;;;;;;15.63;10.85;;;11.00;99.90;;;;;;5040398;28;20075;-76
2023/04/01 08:37:06;;;;;;;18.48;12.07;;;11.00;99.90;;;;;;5064901;28;20448;-76
2023/04/01 08:39:45;;;;;;;15.98;11.13;;;11.00;99.90;;;;;;5037391;28;20488;-77
2023/04/01 08:42:34;;;;;;;14.05;9.52;;;11.00;99.90;;;;;;5054991;28;20036;-77
2023/04/01 08:45:18;;;;;;;12.82;7.72;;;11.00;99.90;;;;;;5053022;28;20041;-77
2023/04/01 08:48:22;;;;;;;13.80;8.98;;;11.10;99.90;;;;;;5066334;28;20040;-77
2023/04/01 08:51:18;;;;;;;14.77;9.82;;;11.10;99.90;;;;;;5069523;28;20106;-77
2023/04/01 08:54:29;;;;;;;13.23;9.02;;;10.90;99.90;;;;;;5037802;28;20040;-76
2023/04/01 08:57:19;;;;;;;15.23;10.10;;;10.90;99.90;;;;;;5069889;28;20500;-77
2023/04/01 09:00:09;;;;;;;14.98;9.55;;;10.90;99.90;;;;;;5060272;28;20032;-78
2023/04/01 09:03:14;;;;;;;16.08;11.05;;;10.90;99.90;;;;;;5051649;28;20047;-78
2023/04/01 09:05:58;;;;;;;15.45;10.68;;;10.90;99.90;;;;;;5051814;28;20099;-78
2023/04/01 09:09:09;;;;;;;14.68;10.32;;;11.00;99.90;;;;;;5059906;28;20072;-78
2023/04/01 09:12:09;;;;;;;15.52;10.68;;;11.00;99.90;;;;;;5060314;28;20041;-77
2023/04/01 09:14:59;;;;;;;15.27;9.95;;;11.00;99.90;;;;;;5046653;28;20048;-78
2023/04/01 09:17:59;;;;;;;15.35;9.98;;;11.10;99.90;;;;;;5053060;28;20075;-77
2023/04/01 09:20:58;;;;;;;14.75;10.38;;;11.10;99.90;;;;;;5076340;28;20045;-77
2023/04/01 09:23:32;;;;;;;15.30;9.88;;;11.20;99.90;;;;;;5035855;28;20043;-77
2023/04/01 09:26:17;;;;;;;14.77;10.77;;;11.20;99.90;;;;;;5053909;28;20045;-77
2023/04/01 09:28:49;;;;;;;17.00;11.82;;;11.10;99.90;;;;;;5047664;28;20040;-77
2023/04/01 09:31:20;;;;;;;;;;;11.10;99.90;;;;;;5052578;28;20481;-77
2023/04/01 09:33:58;;;;;;;16.42;9.68;;;11.20;99.90;;;;;;5058244;28;19993;-78
2023/04/01 09:36:47;;;;;;;15.45;10.10;;;11.20;99.90;;;;;;5056386;28;20037;-78
2023/04/01 09:39:20;;;;;;;13.38;9.50;;;11.20;99.90;;;;;;5052221;28;20044;-78
2023/04/01 09:42:13;;;;;;;12.05;8.60;;;11.30;99.90;;;;;;5068298;28;20540;-78
2023/04/01 09:44:58;;;;;;;12.77;8.88;;;11.40;99.90;;;;;;5070030;28;20044;-78
2023/04/01 09:47:36;;;;;;;11.07;7.47;;;11.30;99.90;;;;;;5054829;28;20037;-78
2023/04/01 09:50:34;;;;;;;11.00;7.05;;;11.40;99.90;;;;;;5053563;28;20044;-77
2023/04/01 09:53:20;;;;;;;11.90;7.28;;;11.40;99.90;;;;;;5052401;28;20412;-78
2023/04/01 09:56:16;;;;;;;10.32;5.90;;;11.50;99.90;;;;;;5040715;28;20072;-77
2023/04/01 09:59:20;;;;;;;7.47;4.50;;;11.50;99.90;;;;;;5054987;28;20127;-77
2023/04/01 10:02:23;;;;;;;6.85;4.10;;;11.40;99.90;;;;;;5066226;28;20115;-77
2023/04/01 10:05:24;;;;;;;7.40;3.80;;;11.30;99.90;;;;;;5048052;28;20041;-76
2023/04/01 10:08:02;;;;;;;6.55;3.42;;;11.10;99.90;;;;;;5060594;28;20036;-77
2023/04/01 10:10:39;;;;;;;6.20;3.20;;;10.90;99.90;;;;;;5049082;28;20044;-77
2023/04/01 10:13:39;;;;;;;6.03;3.38;;;10.90;99.90;;;;;;5038839;28;20152;-77
2023/04/01 10:16:10;;;;;;;5.45;2.90;;;10.90;99.90;;;;;;5051247;28;20467;-77
2023/04/01 10:18:43;;;;;;;6.57;3.20;;;10.90;99.90;;;;;;5037313;28;20037;-77
2023/04/01 10:21:40;;;;;;;5.60;2.80;;;10.80;99.90;;;;;;5051927;28;20091;-77
2023/04/01 10:24:43;;;;;;;5.32;3.15;;;10.90;99.90;;;;;;5070560;28;20285;-77
2023/04/01 10:27:27;;;;;;;5.20;2.80;;;10.80;99.90;;;;;;5047414;28;20086;-78
2023/04/01 10:30:13;;;;;;;5.57;3.20;;;10.70;99.90;;;;;;5055736;28;20127;-77
2023/04/01 10:33:16;;;;;;;5.35;2.85;;;10.70;99.90;;;;;;5063441;28;20124;-78
2023/04/01 10:35:57;;;;;;;5.55;2.72;;;10.80;99.90;;;;;;5052395;28;20064;-77
2023/04/01 10:38:59;;;;;;;6.43;3.30;;;10.70;99.90;;;;;;5035408;28;20044;-77
2023/04/01 10:41:43;;;;;;;7.40;3.50;;;10.70;99.90;;;;;;5051597;28;20044;-78
2023/04/01 10:44:44;;;;;;;6.78;3.72;;;10.70;99.90;;;;;;5039592;28;20079;-77
2023/04/01 10:47:47;;;;;;;6.30;3.53;;;10.70;99.90;;;;;;5055002;28;20053;-77
2023/04/01 10:50:54;;;;;;;4.60;2.13;;;10.80;99.90;;;;;;5071937;28;20489;-78
2023/04/01 10:53:40;;;;;;;4.75;2.70;;;10.80;99.90;;;;;;5068765;28;20389;-77
2023/04/01 10:56:48;;;;;;;4.55;2.50;;;10.70;99.90;;;;;;5051940;28;20051;-78
2023/04/01 10:59:44;;;;;;;5.82;2.58;;;10.70;99.90;;;;;;5062696;28;20044;-78
2023/04/01 11:02:28;;;;;;;6.40;2.70;;;10.60;99.90;;;;;;5060246;28;20492;-77
2023/04/01 11:05:18;;;;;;;4.32;2.45;;;10.70;99.90;;;;;;5071762;28;20508;-77
2023/04/01 11:08:11;;;;;;;4.90;2.47;;;10.60;99.90;;;;;;5046137;28;20047;-77
2023/04/01 11:11:17;;;;;;;4.03;2.42;;;10.60;99.90;;;;;;5051691;28;20045;-77
2023/04/01 11:13:45;;;;;;;5.50;2.70;;;10.50;99.90;;;;;;5052074;28;20049;-77
2023/04/01 11:16:27;;;;;;;4.75;2.58;;;10.50;99.90;;;;;;5038942;28;20045;-77
2023/04/01 11:19:14;;;;;;;4.93;2.42;;;10.40;99.90;;;;;;5053804;28;20032;-78
2023/04/01 11:22:15;;;;;;;7.00;3.13;;;10.40;99.90;;;;;;5054949;28;20497;-78
2023/04/01 11:24:41;;;;;;;6.43;3.10;;;10.50;99.90;;;;;;5054189;28;20051;-77
2023/04/01 11:27:42;;;;;;;8.10;3.65;;;10.40;99.90;;;;;;5069424;28;20045;-76
2023/04/01 11:30:27;;;;;;;9.77;4.05;;;10.30;99.90;;;;;;5082337;28;20043;-78
2023/04/01 11:33:02;;;;;;;8.57;3.60;;;10.20;99.90;;;;;;5070571;28;20029;-78
2023/04/01 11:35:58;;;;;;;6.10;2.95;;;10.20;99.90;;;;;;5047097;28;20472;-77
2023/04/01 11:38:35;;;;;;;4.50;2.17;;;10.40;99.90;;;;;;5052136;28;20036;-77
2023/04/01 11:41:37;;;;;;;4.13;2.40;;;10.40;99.90;;;;;;5068594;28;20040;-78
2023/04/01 11:44:15;;;;;;;5.18;2.35;;;10.40;99.90;;;;;;5055629;28;20036;-78
2023/04/01 11:46:53;;;;;;;4.72;2.50;;;10.50;99.90;;;;;;5058438;28;20044;-80
2023/04/01 11:49:56;;;;;;;3.65;2.20;;;10.50;99.90;;;;;;5073029;28;20115;-80
2023/04/01 11:53:00;;;;;;;4.75;2.50;;;10.60;99.90;;;;;;5049937;28;20669;-80
2023/04/01 11:56:03;;;;;;;4.07;2.10;;;10.60;99.90;;;;;;5049945;28;20107;-80
2023/04/01 11:58:43;;;;;;;4.07;2.50;;;10.70;99.90;;;;;;5062958;28;20041;-80
2023/04/01 12:01:22;;;;;;;4.05;2.72;;;10.50;99.90;;;;;;5057634;28;20048;-80
2023/04/01 12:04:31;;;;;;;3.38;2.13;;;10.50;99.90;;;;;;5065216;28;20047;-80
2023/04/01 12:07:27;;;;;;;4.13;2.45;;;10.70;99.90;;;;;;5073953;28;20037;-70
2023/04/01 12:10:12;;;;;;;5.10;2.88;;;10.70;99.90;;;;;;5058186;28;20051;-74
2023/04/01 12:13:05;;;;;;;4.97;2.92;;;10.60;99.90;;;;;;5053510;28;20048;-80
2023/04/01 12:15:53;;;;;;;5.53;3.03;;;10.60;99.90;;;;;;5067054;28;20373;-79
2023/04/01 12:18:41;;;;;;;4.88;2.95;;;10.60;99.90;;;;;;5051533;28;20036;-79
2023/04/01 12:21:06;;;;;;;5.50;3.00;;;10.50;99.90;;;;;;5074506;28;20037;-79
2023/04/01 12:23:50;;;;;;;5.72;2.85;;;10.60;99.90;;;;;;5058664;28;20095;-80
2023/04/01 12:26:31;;;;;;;5.05;2.70;;;10.50;99.90;;;;;;5038070;28;20493;-79
2023/04/01 12:29:34;;;;;;;4.43;2.42;;;10.60;99.90;;;;;;5054599;28;20072;-78
2023/04/01 12:32:29;;;;;;;5.20;2.22;;;10.60;99.90;;;;;;5038251;28;20045;-79
2023/04/01 12:35:10;;;;;;;3.10;2.05;;;10.70;99.90;;;;;;5069434;28;20037;-77
2023/04/01 12:37:49;;;;;;;3.28;1.75;;;10.60;99.90;;;;;;5045208;28;20127;-78
2023/04/01 12:40:40;;;;;;;3.63;2.22;;;10.60;99.90;;;;;;5071401;28;20508;-77
2023/04/01 12:43:32;;;;;;;4.15;2.05;;;10.60;99.90;;;;;;5048688;28;20041;-77
2023/04/01 12:46:26;;;;;;;4.82;2.20;;;10.50;99.90;;;;;;5038233;28;20051;-77
2023/04/01 12:49:00;;;;;;;4.55;2.53;;;10.50;99.90;;;;;;5055861;28;20067;-80
2023/04/01 12:51:57;;;;;;;5.85;2.83;;;10.60;99.90;;;;;;5057110;28;20447;-78
2023/04/01 12:54:57;;;;;;;4.85;2.50;;;10.50;99.90;;;;;;5052471;28;20048;-79
2023/04/01 12:57:31;;;;;;;3.05;1.83;;;10.50;99.90;;;;;;5053847;28;20048;-79
2023/04/01 13:00:25;;;;;;;3.97;2.40;;;10.40;99.90;;;;;;5053298;28;20040;-78
2023/04/01 13:03:04;;;;;;;3.72;2.15;;;10.40;99.90;;;;;;5050356;28;20503;-79
2023/04/01 13:05:36;;;;;;;3.60;2.03;;;10.40;99.90;;;;;;5042869;28;20090;-78
2023/04/01 13:08:23;;;;;;;3.38;2.33;;;10.30;99.90;;;;;;5048713;28;20576;-77
2023/04/01 13:11:13;;;;;;;2.85;1.70;;;10.30;99.90;;;;;;5068905;28;20393;-80
2023/04/01 13:13:57;;;;;;;3.47;2.30;;;10.40;99.90;;;;;;5055605;28;20132;-80
2023/04/01 13:16:29;;;;;;;4.78;2.35;;;10.30;99.90;;;;;;5076100;28;20032;-78
2023/04/01 13:19:13;;;;;;;3.80;2.22;;;10.20;99.90;;;;;;5048245;28;20079;-79
2023/04/01 13:22:03;;;;;;;3.05;2.13;;;10.10;99.90;;;;;;5039224;28;20453;-79
2023/04/01 13:24:41;;;;;;;3.92;2.30;;;10.10;99.90;;;;;;5064420;28;20103;-79
2023/04/01 13:27:09;;;;;;;2.53;1.80;;;10.00;99.90;;;;;;5064378;28;20498;-78
2023/04/01 13:29:48;;;;;;;3.38;2.20;;;10.10;99.90;;;;;;5043107;28;20033;-79
2023/04/01 13:32:29;;;;;;;2.85;1.88;;;10.00;99.90;;;;;;5045924;28;20124;-78
2023/04/01 13:35:02;;;;;;;3.20;1.85;;;10.10;99.90;;;;;;5052357;28;20079;-80